createdAt,value
2023-04-21T00:00:32.526Z,11.70
2023-04-21T00:01:32.490Z,12.00
2023-04-21T00:02:33.400Z,12.20
2023-04-21T00:03:32.847Z,12.80
2023-04-21T00:04:32.679Z,12.50
2023-04-21T00:05:32.733Z,13.20
2023-04-21T00:06:32.477Z,13.40
2023-04-21T00:07:32.441Z,13.40
2023-04-21T00:08:32.405Z,13.60
2023-04-21T00:09:32.388Z,13.60
2023-04-21T00:10:32.385Z,15.60
2023-04-21T00:11:32.383Z,14.70
2023-04-21T00:12:32.360Z,15.50
2023-04-21T00:13:32.349Z,15.30
2023-04-21T00:14:32.327Z,15.90
2023-04-21T00:15:32.317Z,15.90
2023-04-21T00:16:32.326Z,16.50
2023-04-21T00:17:32.339Z,16.20
2023-04-21T00:18:32.280Z,17.10
2023-04-21T00:19:32.284Z,17.10
2023-04-21T00:20:32.251Z,16.20
2023-04-21T00:21:32.247Z,16.20
2023-04-21T00:22:32.235Z,17.20
2023-04-21T00:23:32.224Z,18.70
2023-04-21T00:24:32.193Z,18.40
2023-04-21T00:25:32.208Z,18.70
2023-04-21T00:26:32.174Z,18.40
2023-04-21T00:27:32.153Z,18.90
2023-04-21T00:28:32.178Z,18.50
2023-04-21T00:29:32.123Z,18.20
2023-04-21T00:30:32.126Z,17.80
2023-04-21T00:31:32.178Z,18.40
2023-04-21T00:32:32.106Z,20.00
2023-04-21T00:33:32.086Z,20.10
2023-04-21T00:34:32.098Z,20.10
2023-04-21T00:35:32.057Z,21.10
2023-04-21T00:36:32.079Z,23.40
2023-04-21T00:37:32.029Z,23.90
2023-04-21T00:38:32.021Z,26.40
2023-04-21T00:39:32.036Z,26.80
2023-04-21T00:40:31.991Z,26.30
2023-04-21T00:41:31.983Z,24.10
2023-04-21T00:42:31.982Z,25.30
2023-04-21T00:43:31.959Z,24.90
2023-04-21T00:44:31.953Z,26.20
2023-04-21T00:45:31.951Z,25.30
2023-04-21T00:46:31.949Z,26.10
2023-04-21T00:47:31.986Z,26.40
2023-04-21T00:48:31.896Z,26.00
2023-04-21T00:49:31.919Z,25.10
2023-04-21T00:50:31.869Z,25.30
2023-04-21T00:51:31.876Z,25.20
2023-04-21T00:52:31.860Z,25.10
2023-04-21T00:53:31.838Z,25.10
2023-04-21T00:54:31.820Z,25.10
2023-04-21T00:55:31.797Z,25.60
2023-04-21T00:56:31.835Z,24.80
2023-04-21T00:57:31.789Z,25.90
2023-04-21T00:58:31.768Z,24.70
2023-04-21T00:59:31.755Z,24.20
2023-04-21T01:00:31.795Z,24.00
2023-04-21T01:01:31.786Z,23.60
2023-04-21T01:02:31.814Z,23.50
2023-04-21T01:03:40.940Z,23.20
2023-04-21T01:04:31.705Z,25.10
2023-04-21T01:05:31.698Z,21.80
2023-04-21T01:06:31.662Z,22.10
2023-04-21T01:07:31.653Z,19.50
2023-04-21T01:08:31.658Z,20.20
2023-04-21T01:09:31.650Z,19.50
2023-04-21T01:10:31.641Z,19.20
2023-04-21T01:11:31.600Z,18.90
2023-04-21T01:12:31.621Z,18.40
2023-04-21T01:13:31.583Z,19.00
2023-04-21T01:14:31.580Z,19.60
2023-04-21T01:15:31.591Z,19.50
2023-04-21T01:16:31.583Z,19.90
2023-04-21T01:17:31.575Z,19.00
2023-04-21T01:18:31.516Z,19.80
2023-04-21T01:19:31.503Z,18.60
2023-04-21T01:20:31.500Z,19.80
2023-04-21T01:21:31.477Z,18.30
2023-04-21T01:22:31.486Z,19.10
2023-04-21T01:23:31.517Z,19.20
2023-04-21T01:24:31.461Z,18.30
2023-04-21T01:25:31.431Z,18.90
2023-04-21T01:26:31.420Z,18.90
2023-04-21T01:27:31.402Z,19.20
2023-04-21T01:28:31.461Z,19.60
2023-04-21T01:29:31.381Z,18.90
2023-04-21T01:30:31.394Z,19.40
2023-04-21T01:31:31.422Z,19.90
2023-04-21T01:32:31.452Z,20.20
2023-04-21T01:33:31.325Z,19.90
2023-04-21T01:34:31.333Z,19.70
2023-04-21T01:35:31.320Z,20.50
2023-04-21T01:36:31.308Z,22.00
2023-04-21T01:37:31.270Z,21.80
2023-04-21T01:38:31.269Z,22.90
2023-04-21T01:39:31.268Z,35.80
2023-04-21T01:40:31.266Z,37.20
2023-04-21T01:41:31.219Z,44.00
2023-04-21T01:42:31.212Z,101.60
2023-04-21T01:43:31.221Z,99.50
2023-04-21T01:44:31.232Z,48.80
2023-04-21T01:45:31.204Z,37.50
2023-04-21T01:46:31.257Z,28.60
2023-04-21T01:47:31.156Z,25.90
2023-04-21T01:48:31.135Z,26.80
2023-04-21T01:49:31.121Z,33.30
2023-04-21T01:50:31.110Z,38.20
2023-04-21T01:51:31.123Z,33.10
2023-04-21T01:52:31.101Z,29.70
2023-04-21T01:53:31.081Z,28.50
2023-04-21T01:54:31.120Z,26.70
2023-04-21T01:55:31.055Z,24.70
2023-04-21T01:56:31.095Z,24.70
2023-04-21T01:57:31.042Z,25.90
2023-04-21T01:58:31.026Z,25.10
2023-04-21T01:59:31.004Z,24.10
2023-04-21T02:00:31.025Z,23.10
2023-04-21T02:01:31.008Z,23.10
2023-04-21T02:02:31.041Z,22.30
2023-04-21T02:03:31.249Z,22.40
2023-04-21T02:04:31.064Z,23.30
2023-04-21T02:05:30.919Z,22.40
2023-04-21T02:06:30.914Z,23.30
2023-04-21T02:07:30.935Z,22.50
2023-04-21T02:08:30.884Z,22.80
2023-04-21T02:09:30.879Z,21.80
2023-04-21T02:10:30.862Z,22.50
2023-04-21T02:11:30.842Z,23.10
2023-04-21T02:12:30.875Z,22.20
2023-04-21T02:13:30.824Z,21.70
2023-04-21T02:14:30.837Z,22.30
2023-04-21T02:15:30.814Z,22.40
2023-04-21T02:16:30.847Z,22.30
2023-04-21T02:17:30.786Z,22.20
2023-04-21T02:18:30.769Z,23.20
2023-04-21T02:19:30.744Z,23.20
2023-04-21T02:20:30.729Z,24.10
2023-04-21T02:21:30.713Z,26.90
2023-04-21T02:22:30.695Z,26.90
2023-04-21T02:23:30.709Z,25.80
2023-04-21T02:24:30.678Z,25.50
2023-04-21T02:25:30.686Z,25.10
2023-04-21T02:26:30.648Z,25.20
2023-04-21T02:27:30.638Z,26.70
2023-04-21T02:28:30.641Z,26.20
2023-04-21T02:29:30.610Z,26.00
2023-04-21T02:30:30.598Z,25.40
2023-04-21T02:31:30.629Z,25.70
2023-04-21T02:32:30.735Z,24.60
2023-04-21T02:33:30.615Z,23.90
2023-04-21T02:34:30.603Z,25.10
2023-04-21T02:35:30.552Z,25.30
2023-04-21T02:36:30.524Z,25.40
2023-04-21T02:37:30.522Z,24.00
2023-04-21T02:38:30.505Z,24.60
2023-04-21T02:39:30.499Z,24.80
2023-04-21T02:40:30.469Z,25.30
2023-04-21T02:41:30.462Z,25.00
2023-04-21T02:42:30.461Z,25.80
2023-04-21T02:43:30.458Z,25.40
2023-04-21T02:44:30.437Z,26.50
2023-04-21T02:45:30.431Z,24.30
2023-04-21T02:46:30.411Z,24.90
2023-04-21T02:47:30.425Z,24.20
2023-04-21T02:48:30.375Z,23.10
2023-04-21T02:49:30.359Z,21.70
2023-04-21T02:50:30.341Z,22.20
2023-04-21T02:51:30.343Z,22.30
2023-04-21T02:52:30.438Z,22.00
2023-04-21T02:53:30.311Z,22.40
2023-04-21T02:54:30.297Z,22.70
2023-04-21T02:55:30.285Z,21.70
2023-04-21T02:56:30.263Z,23.00
2023-04-21T02:57:30.272Z,22.70
2023-04-21T02:58:30.252Z,22.90
2023-04-21T02:59:30.236Z,22.10
2023-04-21T03:00:30.258Z,23.70
2023-04-21T03:01:30.194Z,23.40
2023-04-21T03:02:30.344Z,22.60
2023-04-21T03:03:30.405Z,22.20
2023-04-21T03:04:30.244Z,22.50
2023-04-21T03:05:30.151Z,22.30
2023-04-21T03:06:30.146Z,22.70
2023-04-21T03:07:30.122Z,23.10
2023-04-21T03:08:30.144Z,23.70
2023-04-21T03:09:30.129Z,22.60
2023-04-21T03:10:30.084Z,23.70
2023-04-21T03:11:30.090Z,23.60
2023-04-21T03:12:30.061Z,23.10
2023-04-21T03:13:30.111Z,23.50
2023-04-21T03:14:30.051Z,22.90
2023-04-21T03:15:30.032Z,25.40
2023-04-21T03:16:30.038Z,35.40
2023-04-21T03:17:33.058Z,33.70
2023-04-21T03:18:29.987Z,31.60
2023-04-21T03:19:30.015Z,26.10
2023-04-21T03:20:29.991Z,23.50
2023-04-21T03:21:29.960Z,23.50
2023-04-21T03:22:29.941Z,22.80
2023-04-21T03:23:29.940Z,23.60
2023-04-21T03:24:29.920Z,24.40
2023-04-21T03:25:29.900Z,23.40
2023-04-21T03:26:29.907Z,23.60
2023-04-21T03:27:29.876Z,24.10
2023-04-21T03:28:29.872Z,24.40
2023-04-21T03:29:29.858Z,24.80
2023-04-21T03:30:29.848Z,24.40
2023-04-21T03:31:29.850Z,25.60
2023-04-21T03:32:29.865Z,25.00
2023-04-21T03:33:29.817Z,24.90
2023-04-21T03:34:29.785Z,25.80
2023-04-21T03:35:29.775Z,26.30
2023-04-21T03:36:29.770Z,26.80
2023-04-21T03:37:29.757Z,25.80
2023-04-21T03:38:29.752Z,26.00
2023-04-21T03:39:29.730Z,25.20
2023-04-21T03:40:29.712Z,25.60
2023-04-21T03:41:29.706Z,27.10
2023-04-21T03:42:29.750Z,25.60
2023-04-21T03:43:29.669Z,26.50
2023-04-21T03:44:29.718Z,25.30
2023-04-21T03:45:29.649Z,28.40
2023-04-21T03:46:29.708Z,25.30
2023-04-21T03:47:29.668Z,25.40
2023-04-21T03:48:29.605Z,25.00
2023-04-21T03:49:29.602Z,24.30
2023-04-21T03:50:29.585Z,23.90
2023-04-21T03:51:29.573Z,23.10
2023-04-21T03:52:29.567Z,23.00
2023-04-21T03:53:29.549Z,23.40
2023-04-21T03:54:29.557Z,23.30
2023-04-21T03:55:29.515Z,23.50
2023-04-21T03:56:29.498Z,22.70
2023-04-21T03:57:29.501Z,23.40
2023-04-21T03:58:29.516Z,23.40
2023-04-21T03:59:29.464Z,23.70
2023-04-21T04:00:29.533Z,23.90
2023-04-21T04:01:29.441Z,24.00
2023-04-21T04:02:29.599Z,24.10
2023-04-21T04:03:29.583Z,25.10
2023-04-21T04:04:29.514Z,24.60
2023-04-21T04:05:29.436Z,24.80
2023-04-21T04:06:29.411Z,24.90
2023-04-21T04:07:29.370Z,24.30
2023-04-21T04:08:29.353Z,24.80
2023-04-21T04:09:29.357Z,23.00
2023-04-21T04:10:29.342Z,24.00
2023-04-21T04:11:29.344Z,25.40
2023-04-21T04:12:29.328Z,27.00
2023-04-21T04:13:29.329Z,25.60
2023-04-21T04:14:29.294Z,25.80
2023-04-21T04:15:29.284Z,23.30
2023-04-21T04:16:29.402Z,23.60
2023-04-21T04:17:29.295Z,22.80
2023-04-21T04:18:29.232Z,23.90
2023-04-21T04:19:29.232Z,23.90
2023-04-21T04:20:29.199Z,24.10
2023-04-21T04:21:29.205Z,25.00
2023-04-21T04:22:29.171Z,24.90
2023-04-21T04:23:29.207Z,24.90
2023-04-21T04:24:29.192Z,25.00
2023-04-21T04:25:29.145Z,24.00
2023-04-21T04:26:29.185Z,27.40
2023-04-21T04:27:29.127Z,26.80
2023-04-21T04:28:29.102Z,26.20
2023-04-21T04:29:29.114Z,24.80
2023-04-21T04:30:29.087Z,24.80
2023-04-21T04:31:29.082Z,24.70
2023-04-21T04:32:29.110Z,23.90
2023-04-21T04:33:29.034Z,23.90
2023-04-21T04:34:29.023Z,23.90
2023-04-21T04:35:29.031Z,24.30
2023-04-21T04:36:29.004Z,25.70
2023-04-21T04:37:29.022Z,25.70
2023-04-21T04:38:29.010Z,25.10
2023-04-21T04:39:28.980Z,25.10
2023-04-21T04:40:28.957Z,25.10
2023-04-21T04:41:28.950Z,25.90
2023-04-21T04:42:28.932Z,25.80
2023-04-21T04:43:28.931Z,24.40
2023-04-21T04:44:28.897Z,25.00
2023-04-21T04:45:28.886Z,25.90
2023-04-21T04:46:28.896Z,25.20
2023-04-21T04:47:28.928Z,25.50
2023-04-21T04:48:28.846Z,25.90
2023-04-21T04:49:28.851Z,25.00
2023-04-21T04:50:28.825Z,25.20
2023-04-21T04:51:28.809Z,25.20
2023-04-21T04:52:28.804Z,25.70
2023-04-21T04:53:28.938Z,25.30
2023-04-21T04:54:28.781Z,25.30
2023-04-21T04:55:28.784Z,26.30
2023-04-21T04:56:28.754Z,26.30
2023-04-21T04:57:28.748Z,27.00
2023-04-21T04:58:28.729Z,28.70
2023-04-21T04:59:30.224Z,28.70
2023-04-21T05:00:28.719Z,27.90
2023-04-21T05:01:28.722Z,28.80
2023-04-21T05:02:28.854Z,28.50
2023-04-21T05:03:28.821Z,30.30
2023-04-21T05:04:29.185Z,31.30
2023-04-21T05:05:28.667Z,31.20
2023-04-21T05:06:28.676Z,31.30
2023-04-21T05:07:28.619Z,32.00
2023-04-21T05:08:28.636Z,31.00
2023-04-21T05:09:28.591Z,33.50
2023-04-21T05:10:28.617Z,33.20
2023-04-21T05:11:28.588Z,34.00
2023-04-21T05:12:28.558Z,33.00
2023-04-21T05:13:28.542Z,30.90
2023-04-21T05:14:28.541Z,30.40
2023-04-21T05:15:28.520Z,32.60
2023-04-21T05:16:28.596Z,30.60
2023-04-21T05:17:28.533Z,33.30
2023-04-21T05:18:28.477Z,34.30
2023-04-21T05:19:28.460Z,33.40
2023-04-21T05:20:28.458Z,33.70
2023-04-21T05:21:28.464Z,31.60
2023-04-21T05:22:28.448Z,29.40
2023-04-21T05:23:28.429Z,29.50
2023-04-21T05:24:28.394Z,32.70
2023-04-21T05:25:28.385Z,30.60
2023-04-21T05:26:28.381Z,30.10
2023-04-21T05:27:28.390Z,29.00
2023-04-21T05:28:28.371Z,28.50
2023-04-21T05:29:28.336Z,26.70
2023-04-21T05:30:28.339Z,26.30
2023-04-21T05:31:28.318Z,25.70
2023-04-21T05:32:28.381Z,25.70
2023-04-21T05:33:28.277Z,26.70
2023-04-21T05:34:28.283Z,29.00
2023-04-21T05:35:28.263Z,28.80
2023-04-21T05:36:28.240Z,31.30
2023-04-21T05:37:28.227Z,31.70
2023-04-21T05:38:28.275Z,31.20
2023-04-21T05:39:28.252Z,28.30
2023-04-21T05:40:28.188Z,25.50
2023-04-21T05:41:28.187Z,24.80
2023-04-21T05:42:28.171Z,25.10
2023-04-21T05:43:28.154Z,23.60
2023-04-21T05:44:28.173Z,22.30
2023-04-21T05:45:28.139Z,21.50
2023-04-21T05:46:28.206Z,21.50
2023-04-21T05:47:28.135Z,20.40
2023-04-21T05:48:28.082Z,20.20
2023-04-21T05:49:28.064Z,20.90
2023-04-21T05:50:28.102Z,21.00
2023-04-21T05:51:28.054Z,20.00
2023-04-21T05:52:28.069Z,19.40
2023-04-21T05:53:28.044Z,18.80
2023-04-21T05:54:28.067Z,17.30
2023-04-21T05:55:27.989Z,16.70
2023-04-21T05:56:28.054Z,17.20
2023-04-21T05:57:27.981Z,16.90
2023-04-21T05:58:27.960Z,17.10
2023-04-21T05:59:27.961Z,16.90
2023-04-21T06:00:27.943Z,16.20
2023-04-21T06:01:27.933Z,16.10
2023-04-21T06:02:28.083Z,16.30
2023-04-21T06:03:28.030Z,16.40
2023-04-21T06:04:28.493Z,15.30
2023-04-21T06:05:27.936Z,15.00
2023-04-21T06:06:27.853Z,15.90
2023-04-21T06:07:27.842Z,16.30
2023-04-21T06:08:27.863Z,16.80
2023-04-21T06:09:27.833Z,16.60
2023-04-21T06:10:27.928Z,16.30
2023-04-21T06:11:27.805Z,15.60
2023-04-21T06:12:27.785Z,15.60
2023-04-21T06:13:27.866Z,16.20
2023-04-21T06:14:27.767Z,15.50
2023-04-21T06:15:27.748Z,14.70
2023-04-21T06:16:27.825Z,14.40
2023-04-21T06:17:27.751Z,13.90
2023-04-21T06:18:27.713Z,14.20
2023-04-21T06:19:27.717Z,15.00
2023-04-21T06:20:27.723Z,12.50
2023-04-21T06:21:27.682Z,12.70
2023-04-21T06:22:27.647Z,12.70
2023-04-21T06:23:27.642Z,12.30
2023-04-21T06:24:27.619Z,12.30
2023-04-21T06:25:27.637Z,12.20
2023-04-21T06:26:27.618Z,12.20
2023-04-21T06:27:27.617Z,13.10
2023-04-21T06:28:27.610Z,13.20
2023-04-21T06:29:27.562Z,12.50
2023-04-21T06:30:27.552Z,12.00
2023-04-21T06:31:27.610Z,13.20
2023-04-21T06:32:27.560Z,13.30
2023-04-21T06:33:27.512Z,13.30
2023-04-21T06:34:27.505Z,13.60
2023-04-21T06:35:27.484Z,12.80
2023-04-21T06:36:27.530Z,13.50
2023-04-21T06:37:27.456Z,14.20
2023-04-21T06:38:27.443Z,13.60
2023-04-21T06:39:27.438Z,14.60
2023-04-21T06:40:27.454Z,13.90
2023-04-21T06:41:27.406Z,14.80
2023-04-21T06:42:27.471Z,15.10
2023-04-21T06:43:27.376Z,16.50
2023-04-21T06:44:27.370Z,15.90
2023-04-21T06:45:27.349Z,17.40
2023-04-21T06:46:27.415Z,16.10
2023-04-21T06:47:27.552Z,17.20
2023-04-21T06:48:27.318Z,15.20
2023-04-21T06:49:27.306Z,15.40
2023-04-21T06:50:27.383Z,15.80
2023-04-21T06:51:27.284Z,15.50
2023-04-21T06:52:27.317Z,15.50
2023-04-21T06:53:27.265Z,14.40
2023-04-21T06:54:27.263Z,14.10
2023-04-21T06:55:27.304Z,14.40
2023-04-21T06:56:27.253Z,13.60
2023-04-21T06:57:27.230Z,13.30
2023-04-21T06:58:27.184Z,12.20
2023-04-21T06:59:27.171Z,12.30
2023-04-21T07:00:27.184Z,12.40
2023-04-21T07:01:27.184Z,12.50
2023-04-21T07:02:27.219Z,12.60
2023-04-21T07:03:27.184Z,11.40
2023-04-21T07:04:27.115Z,11.60
2023-04-21T07:05:27.092Z,10.40
2023-04-21T07:06:27.153Z,10.90
2023-04-21T07:07:27.069Z,11.00
2023-04-21T07:08:27.088Z,11.00
2023-04-21T07:09:27.045Z,10.90
2023-04-21T07:10:27.047Z,11.60
2023-04-21T07:11:27.023Z,11.30
2023-04-21T07:12:27.024Z,11.30
2023-04-21T07:13:27.038Z,11.30
2023-04-21T07:14:27.046Z,11.10
2023-04-21T07:15:26.978Z,11.60
2023-04-21T07:16:27.040Z,11.20
2023-04-21T07:17:26.989Z,11.00
2023-04-21T07:18:26.984Z,10.20
2023-04-21T07:19:26.951Z,9.10
2023-04-21T07:20:27.005Z,10.20
2023-04-21T07:21:26.886Z,10.70
2023-04-21T07:22:26.910Z,10.60
2023-04-21T07:23:26.869Z,9.90
2023-04-21T07:24:26.875Z,10.50
2023-04-21T07:25:26.845Z,9.90
2023-04-21T07:26:26.839Z,9.90
2023-04-21T07:27:26.819Z,9.90
2023-04-21T07:28:26.830Z,10.20
2023-04-21T07:29:26.776Z,8.50
2023-04-21T07:30:26.919Z,7.90
2023-04-21T07:31:26.786Z,7.80
2023-04-21T07:32:26.834Z,7.40
2023-04-21T07:33:26.751Z,6.00
2023-04-21T07:34:26.735Z,5.40
2023-04-21T07:35:26.719Z,5.60
2023-04-21T07:36:26.728Z,6.20
2023-04-21T07:37:26.685Z,5.50
2023-04-21T07:38:26.673Z,6.40
2023-04-21T07:39:26.657Z,6.40
2023-04-21T07:40:26.660Z,6.10
2023-04-21T07:41:26.653Z,4.90
2023-04-21T07:42:26.632Z,4.50
2023-04-21T07:43:26.612Z,4.10
2023-04-21T07:44:26.612Z,4.80
2023-04-21T07:45:26.607Z,5.20
2023-04-21T07:46:26.643Z,8.10
2023-04-21T07:47:26.798Z,5.20
2023-04-21T07:48:26.558Z,3.80
2023-04-21T07:49:26.528Z,4.20
2023-04-21T07:50:26.514Z,3.70
2023-04-21T07:51:26.553Z,3.50
2023-04-21T07:52:26.541Z,3.80
2023-04-21T07:53:26.583Z,3.90
2023-04-21T07:54:26.501Z,4.20
2023-04-21T07:55:26.502Z,4.20
2023-04-21T07:56:26.461Z,4.00
2023-04-21T07:57:26.475Z,4.10
2023-04-21T07:58:26.491Z,3.50
2023-04-21T07:59:26.425Z,3.30
2023-04-21T08:00:26.413Z,3.20
2023-04-21T08:01:26.396Z,3.70
2023-04-21T08:02:26.510Z,3.40
2023-04-21T08:03:26.609Z,3.60
2023-04-21T08:04:26.487Z,3.30
2023-04-21T08:05:30.273Z,3.20
2023-04-21T08:06:26.508Z,3.00
2023-04-21T08:07:26.339Z,2.90
2023-04-21T08:08:26.386Z,2.80
2023-04-21T08:09:26.395Z,3.20
2023-04-21T08:10:26.337Z,3.20
2023-04-21T08:11:26.309Z,3.90
2023-04-21T08:12:26.314Z,3.50
2023-04-21T08:13:26.380Z,3.70
2023-04-21T08:14:26.251Z,3.60
2023-04-21T08:15:26.284Z,3.50
2023-04-21T08:16:26.286Z,3.50
2023-04-21T08:17:26.257Z,3.50
2023-04-21T08:18:26.239Z,3.80
2023-04-21T08:19:26.301Z,3.70
2023-04-21T08:20:26.245Z,4.00
2023-04-21T08:21:26.210Z,3.80
2023-04-21T08:22:26.224Z,3.70
2023-04-21T08:23:26.205Z,3.50
2023-04-21T08:24:26.163Z,3.40
2023-04-21T08:25:26.178Z,3.20
2023-04-21T08:26:26.108Z,3.50
2023-04-21T08:27:26.311Z,3.40
2023-04-21T08:28:26.106Z,3.30
2023-04-21T08:29:26.130Z,3.20
2023-04-21T08:30:26.057Z,3.10
2023-04-21T08:31:26.179Z,3.40
2023-04-21T08:32:26.240Z,3.70
2023-04-21T08:33:26.036Z,3.70
2023-04-21T08:34:27.694Z,3.50
2023-04-21T08:35:26.089Z,3.20
2023-04-21T08:36:29.464Z,2.40
2023-04-21T08:37:26.038Z,2.20
2023-04-21T08:38:26.084Z,2.60
2023-04-21T08:39:26.022Z,2.20
2023-04-21T08:40:25.962Z,1.90
2023-04-21T08:41:25.999Z,2.20
2023-04-21T08:42:26.107Z,2.20
2023-04-21T08:43:25.927Z,2.20
2023-04-21T08:44:26.016Z,2.10
2023-04-21T08:45:25.935Z,2.30
2023-04-21T08:46:26.089Z,2.50
2023-04-21T08:47:25.907Z,2.80
2023-04-21T08:48:25.876Z,2.60
2023-04-21T08:49:25.900Z,2.40
2023-04-21T08:50:25.839Z,2.30
2023-04-21T08:51:25.829Z,2.50
2023-04-21T08:52:25.877Z,2.20
2023-04-21T08:53:25.809Z,2.20
2023-04-21T08:54:26.374Z,2.40
2023-04-21T08:55:25.824Z,2.60
2023-04-21T08:56:25.800Z,2.60
2023-04-21T08:57:25.755Z,2.70
2023-04-21T08:58:25.774Z,2.50
2023-04-21T08:59:25.764Z,2.40
2023-04-21T09:00:25.730Z,2.50
2023-04-21T09:01:25.800Z,3.00
2023-04-21T09:02:25.849Z,2.80
2023-04-21T09:03:26.554Z,2.80
2023-04-21T09:04:25.937Z,3.00
2023-04-21T09:05:26.062Z,3.20
2023-04-21T09:06:25.746Z,3.10
2023-04-21T09:07:25.720Z,3.30
2023-04-21T09:08:25.714Z,3.20
2023-04-21T09:09:25.657Z,3.00
2023-04-21T09:10:25.718Z,3.00
2023-04-21T09:11:25.790Z,2.90
2023-04-21T09:12:25.654Z,2.70
2023-04-21T09:13:25.635Z,2.70
2023-04-21T09:14:25.679Z,2.60
2023-04-21T09:15:25.859Z,2.50
2023-04-21T09:16:25.778Z,2.60
2023-04-21T09:17:25.678Z,2.60
2023-04-21T09:18:25.721Z,3.10
2023-04-21T09:19:25.568Z,2.80
2023-04-21T09:20:25.538Z,2.60
2023-04-21T09:21:25.559Z,2.30
2023-04-21T09:22:25.527Z,2.30
2023-04-21T09:23:25.566Z,2.70
2023-04-21T09:24:25.532Z,2.80
2023-04-21T09:25:25.522Z,2.90
2023-04-21T09:26:25.524Z,3.10
2023-04-21T09:27:25.485Z,2.80
2023-04-21T09:28:25.479Z,2.60
2023-04-21T09:29:25.506Z,2.50
2023-04-21T09:30:25.463Z,2.80
2023-04-21T09:31:25.672Z,2.70
2023-04-21T09:32:25.530Z,2.50
2023-04-21T09:33:30.968Z,2.70
2023-04-21T09:34:25.429Z,2.60
2023-04-21T09:35:25.436Z,2.70
2023-04-21T09:36:25.464Z,2.60
2023-04-21T09:37:25.459Z,2.60
2023-04-21T09:38:25.599Z,2.70
2023-04-21T09:39:40.569Z,2.70
2023-04-21T09:40:25.366Z,2.80
2023-04-21T09:41:25.395Z,2.60
2023-04-21T09:42:25.340Z,2.60
2023-04-21T09:43:25.431Z,3.10
2023-04-21T09:44:25.492Z,2.70
2023-04-21T09:45:39.188Z,2.90
2023-04-21T09:46:25.394Z,2.60
2023-04-21T09:47:25.341Z,2.60
2023-04-21T09:48:25.276Z,2.80
2023-04-21T09:49:25.273Z,2.40
2023-04-21T09:50:51.208Z,2.70
2023-04-21T09:51:32.843Z,2.70
2023-04-21T09:52:26.199Z,2.80
2023-04-21T09:53:25.266Z,2.80
2023-04-21T09:54:30.212Z,2.80
2023-04-21T09:55:25.221Z,3.10
2023-04-21T09:56:25.210Z,3.00
2023-04-21T09:57:25.209Z,3.10
2023-04-21T09:58:25.280Z,2.70
2023-04-21T09:59:25.162Z,2.60
2023-04-21T10:00:25.172Z,2.80
2023-04-21T10:01:25.155Z,2.60
2023-04-21T10:02:25.395Z,2.60
2023-04-21T10:03:25.230Z,2.60
2023-04-21T10:04:25.647Z,2.80
2023-04-21T10:05:25.165Z,2.90
2023-04-21T10:06:25.096Z,2.60
2023-04-21T10:07:25.096Z,2.70
2023-04-21T10:08:25.107Z,2.60
2023-04-21T10:09:25.082Z,2.60
2023-04-21T10:10:25.064Z,2.70
2023-04-21T10:11:25.061Z,2.60
2023-04-21T10:12:25.054Z,2.70
2023-04-21T10:13:25.021Z,2.60
2023-04-21T10:14:25.068Z,2.70
2023-04-21T10:15:25.021Z,2.50
2023-04-21T10:16:25.003Z,2.80
2023-04-21T10:17:25.029Z,2.40
2023-04-21T10:18:25.089Z,2.50
2023-04-21T10:19:24.989Z,2.60
2023-04-21T10:20:24.998Z,2.80
2023-04-21T10:21:25.016Z,2.50
2023-04-21T10:22:24.969Z,2.70
2023-04-21T10:23:24.976Z,2.50
2023-04-21T10:24:24.933Z,2.60
2023-04-21T10:25:24.942Z,2.70
2023-04-21T10:26:24.910Z,2.70
2023-04-21T10:27:24.948Z,2.80
2023-04-21T10:28:24.949Z,2.60
2023-04-21T10:29:24.904Z,2.40
2023-04-21T10:30:24.936Z,2.70
2023-04-21T10:31:24.933Z,2.70
2023-04-21T10:32:24.927Z,2.90
2023-04-21T10:33:24.857Z,3.00
2023-04-21T10:34:24.860Z,2.70
2023-04-21T10:35:25.870Z,3.00
2023-04-21T10:36:24.819Z,2.80
2023-04-21T10:37:24.824Z,2.90
2023-04-21T10:38:24.883Z,3.00
2023-04-21T10:39:24.793Z,2.70
2023-04-21T10:40:33.140Z,2.90
2023-04-21T10:41:24.800Z,2.80
2023-04-21T10:42:24.763Z,2.70
2023-04-21T10:43:24.767Z,2.90
2023-04-21T10:44:24.794Z,2.90
2023-04-21T10:45:24.857Z,3.00
2023-04-21T10:46:24.807Z,2.80
2023-04-21T10:47:24.750Z,2.90
2023-04-21T10:48:24.689Z,2.80
2023-04-21T10:49:24.709Z,2.70
2023-04-21T10:50:24.678Z,2.90
2023-04-21T10:51:24.766Z,2.60
2023-04-21T10:52:24.693Z,2.90
2023-04-21T10:53:24.704Z,3.00
2023-04-21T10:54:24.636Z,3.30
2023-04-21T10:55:24.849Z,3.20
2023-04-21T10:56:24.826Z,3.10
2023-04-21T10:57:24.617Z,2.60
2023-04-21T10:58:24.637Z,2.80
2023-04-21T10:59:24.602Z,2.60
2023-04-21T11:00:24.610Z,2.90
2023-04-21T11:01:24.656Z,3.50
2023-04-21T11:02:24.701Z,3.50
2023-04-21T11:03:25.065Z,3.50
2023-04-21T11:04:25.809Z,3.60
2023-04-21T11:05:24.532Z,2.30
2023-04-21T11:06:24.552Z,2.70
2023-04-21T11:07:24.559Z,3.30
2023-04-21T11:08:24.587Z,3.50
2023-04-21T11:09:24.628Z,3.30
2023-04-21T11:10:24.813Z,3.00
2023-04-21T11:11:24.794Z,3.20
2023-04-21T11:12:24.937Z,3.20
2023-04-21T11:13:24.639Z,3.30
2023-04-21T11:14:24.645Z,3.20
2023-04-21T11:15:25.189Z,3.00
2023-04-21T11:16:24.781Z,3.10
2023-04-21T11:17:24.746Z,3.30
2023-04-21T11:18:24.668Z,2.90
2023-04-21T11:19:24.682Z,3.10
2023-04-21T11:20:23.625Z,3.10
2023-04-21T11:21:25.217Z,2.90
2023-04-21T11:22:24.639Z,3.00
2023-04-21T11:23:24.534Z,3.10
2023-04-21T11:24:24.513Z,3.10
2023-04-21T11:25:24.522Z,3.00
2023-04-21T11:26:25.129Z,3.00
2023-04-21T11:27:24.515Z,3.00
2023-04-21T11:28:24.579Z,3.10
2023-04-21T11:29:24.469Z,2.90
2023-04-21T11:30:24.559Z,2.90
2023-04-21T11:31:24.525Z,2.80
2023-04-21T11:32:24.477Z,3.10
2023-04-21T11:33:24.460Z,3.40
2023-04-21T11:34:24.417Z,3.20
2023-04-21T11:35:24.455Z,3.00
2023-04-21T11:36:24.396Z,3.30
2023-04-21T11:37:24.442Z,3.10
2023-04-21T11:38:24.436Z,3.00
2023-04-21T11:39:24.387Z,3.20
2023-04-21T11:40:24.369Z,2.80
2023-04-21T11:41:24.395Z,3.00
2023-04-21T11:42:24.362Z,3.10
2023-04-21T11:43:24.348Z,2.90
2023-04-21T13:58:59.797Z,3.00
2023-04-21T16:13:42.827Z,2.80
2023-04-21T16:13:48.668Z,0.80
2023-04-21T20:44:14.758Z,10.90
2023-04-21T20:45:15.749Z,10.90
2023-04-21T20:46:15.773Z,11.00
2023-04-21T20:47:15.742Z,11.50
2023-04-21T20:48:15.695Z,11.30
2023-04-21T20:49:15.701Z,11.20
2023-04-21T20:50:15.733Z,10.40
2023-04-21T20:51:15.673Z,10.90
2023-04-21T20:52:15.641Z,10.00
2023-04-21T20:53:15.630Z,12.50
2023-04-21T20:54:15.657Z,12.80
2023-04-21T20:55:15.662Z,11.00
2023-04-21T20:56:15.625Z,10.30
2023-04-21T20:57:15.605Z,11.10
2023-04-21T20:58:15.561Z,10.70
2023-04-21T20:59:15.581Z,10.20
2023-04-21T21:00:15.555Z,10.70
2023-04-21T21:01:15.598Z,10.60
2023-04-21T21:02:15.636Z,10.90
2023-04-21T21:03:15.709Z,10.40
2023-04-21T21:04:15.614Z,10.10
2023-04-21T21:05:15.477Z,10.80
2023-04-21T21:06:15.489Z,10.90
2023-04-21T21:07:15.446Z,11.40
2023-04-21T21:08:15.465Z,11.50
2023-04-21T21:09:15.439Z,11.60
2023-04-21T21:10:18.208Z,11.00
2023-04-21T21:11:15.429Z,11.20
2023-04-21T21:12:15.420Z,11.20
2023-04-21T21:13:15.379Z,10.90
2023-04-21T21:14:15.368Z,11.20
2023-04-21T21:15:15.346Z,11.70
2023-04-21T21:16:15.426Z,11.30
2023-04-21T21:17:15.446Z,11.90
2023-04-21T21:18:15.390Z,11.80
2023-04-21T21:19:15.297Z,11.50
2023-04-21T21:20:15.325Z,11.40
2023-04-21T21:21:15.276Z,11.80
2023-04-21T21:22:15.260Z,12.50
2023-04-21T21:23:15.249Z,12.30
2023-04-21T21:24:15.856Z,12.50
2023-04-21T21:25:15.216Z,11.90
2023-04-21T21:26:15.311Z,11.50
2023-04-21T21:27:15.344Z,12.30
2023-04-21T21:28:15.173Z,12.50
2023-04-21T21:29:15.161Z,12.40
2023-04-21T21:30:15.251Z,12.00
2023-04-21T21:31:15.170Z,12.60
2023-04-21T21:32:15.162Z,13.10
2023-04-21T21:33:15.114Z,12.20
2023-04-21T21:34:15.105Z,12.30
2023-04-21T21:35:15.112Z,12.70
2023-04-21T21:36:15.107Z,12.30
2023-04-21T21:37:15.052Z,12.80
2023-04-21T21:38:15.055Z,13.30
2023-04-21T21:39:15.043Z,13.40
2023-04-21T21:40:15.013Z,12.90
2023-04-21T21:41:15.013Z,13.60
2023-04-21T21:42:15.018Z,13.20
2023-04-21T21:43:15.002Z,13.50
2023-04-21T21:44:14.981Z,14.10
2023-04-21T21:45:14.995Z,14.30
2023-04-21T21:46:15.059Z,13.50
2023-04-21T21:47:14.941Z,14.00
2023-04-21T21:48:14.959Z,13.30
2023-04-21T21:49:14.896Z,12.80
2023-04-21T21:50:14.893Z,13.50
2023-04-21T21:51:14.875Z,13.70
2023-04-21T21:52:14.862Z,13.80
2023-04-21T21:53:14.859Z,13.70
2023-04-21T21:54:14.865Z,13.40
2023-04-21T21:55:14.836Z,13.30
2023-04-21T21:56:14.820Z,14.10
2023-04-21T21:57:14.806Z,13.10
2023-04-21T21:58:14.814Z,13.50